sensor_id;sensor_type;location;lat;lon;timestamp;pressure;altitude;pressure_sealevel;temperature;humidity
37848;BME280;23688;33.130;-117.188;2022-08-03T00:01:57;99469.44;;;26.97;49.01
37848;BME280;23688;33.130;-117.188;2022-08-03T00:04:23;99461.91;;;27.14;49.93
37848;BME280;23688;33.130;-117.188;2022-08-03T00:06:49;99461.81;;;26.83;49.78
37848;BME280;23688;33.130;-117.188;2022-08-03T00:09:15;99457.28;;;26.86;49.72
37848;BME280;23688;33.130;-117.188;2022-08-03T00:11:41;99462.56;;;26.54;50.85
37848;BME280;23688;33.130;-117.188;2022-08-03T00:14:07;99458.88;;;26.94;50.01
37848;BME280;23688;33.130;-117.188;2022-08-03T00:16:33;99452.44;;;26.68;50.65
37848;BME280;23688;33.130;-117.188;2022-08-03T00:18:59;99450.59;;;26.70;49.28
37848;BME280;23688;33.130;-117.188;2022-08-03T00:21:25;99454.44;;;26.58;50.79
37848;BME280;23688;33.130;-117.188;2022-08-03T00:23:50;99457.44;;;26.43;48.88
37848;BME280;23688;33.130;-117.188;2022-08-03T00:26:16;99448.69;;;26.38;49.31
37848;BME280;23688;33.130;-117.188;2022-08-03T00:28:42;99452.09;;;26.44;50.25
37848;BME280;23688;33.130;-117.188;2022-08-03T00:31:08;99448.78;;;26.35;49.51
37848;BME280;23688;33.130;-117.188;2022-08-03T00:33:35;99449.69;;;26.34;50.62
37848;BME280;23688;33.130;-117.188;2022-08-03T00:36:00;99455.53;;;26.48;50.66
37848;BME280;23688;33.130;-117.188;2022-08-03T00:38:26;99446.91;;;26.38;49.57
37848;BME280;23688;33.130;-117.188;2022-08-03T00:40:52;99448.75;;;25.97;49.19
37848;BME280;23688;33.130;-117.188;2022-08-03T00:43:23;99447.97;;;25.92;49.95
37848;BME280;23688;33.130;-117.188;2022-08-03T00:45:53;99442.75;;;25.88;50.10
37848;BME280;23688;33.130;-117.188;2022-08-03T00:48:19;99449.44;;;25.63;48.90
37848;BME280;23688;33.130;-117.188;2022-08-03T00:50:45;99452.09;;;25.63;51.45
37848;BME280;23688;33.130;-117.188;2022-08-03T00:53:12;99438.88;;;25.60;54.20
37848;BME280;23688;33.130;-117.188;2022-08-03T00:55:39;99443.69;;;25.41;55.68
37848;BME280;23688;33.130;-117.188;2022-08-03T00:58:06;99433.38;;;25.25;56.09
37848;BME280;23688;33.130;-117.188;2022-08-03T01:00:33;99436.47;;;25.00;55.87
37848;BME280;23688;33.130;-117.188;2022-08-03T01:03:09;99425.94;;;24.94;55.12
37848;BME280;23688;33.130;-117.188;2022-08-03T01:21:11;99419.13;;;24.81;55.88
37848;BME280;23688;33.130;-117.188;2022-08-03T01:26:12;99421.00;;;24.75;59.91
37848;BME280;23688;33.130;-117.188;2022-08-03T01:31:18;99411.59;;;25.04;60.90
37848;BME280;23688;33.130;-117.188;2022-08-03T01:33:49;99415.88;;;25.13;60.47
37848;BME280;23688;33.130;-117.188;2022-08-03T01:36:21;99416.28;;;25.38;59.23
37848;BME280;23688;33.130;-117.188;2022-08-03T01:38:51;99422.75;;;25.25;59.92
37848;BME280;23688;33.130;-117.188;2022-08-03T01:41:23;99412.50;;;25.48;58.04
37848;BME280;23688;33.130;-117.188;2022-08-03T01:43:52;99414.47;;;25.40;58.46
37848;BME280;23688;33.130;-117.188;2022-08-03T01:46:18;99410.91;;;25.41;59.62
37848;BME280;23688;33.130;-117.188;2022-08-03T01:48:45;99420.78;;;25.34;59.68
37848;BME280;23688;33.130;-117.188;2022-08-03T01:51:12;99423.81;;;25.14;60.34
37848;BME280;23688;33.130;-117.188;2022-08-03T01:53:39;99425.88;;;24.97;60.93
37848;BME280;23688;33.130;-117.188;2022-08-03T01:56:07;99421.66;;;24.87;60.46
37848;BME280;23688;33.130;-117.188;2022-08-03T01:58:34;99425.00;;;24.96;60.88
37848;BME280;23688;33.130;-117.188;2022-08-03T02:01:00;99422.47;;;24.90;59.31
37848;BME280;23688;33.130;-117.188;2022-08-03T02:03:27;99438.59;;;24.80;61.06
37848;BME280;23688;33.130;-117.188;2022-08-03T02:05:54;99433.28;;;24.80;60.97
37848;BME280;23688;33.130;-117.188;2022-08-03T02:08:22;99435.00;;;24.82;60.49
37848;BME280;23688;33.130;-117.188;2022-08-03T02:10:48;99448.91;;;24.44;62.85
37848;BME280;23688;33.130;-117.188;2022-08-03T02:13:15;99440.41;;;24.22;63.72
37848;BME280;23688;33.130;-117.188;2022-08-03T02:15:44;99441.16;;;24.30;63.82
37848;BME280;23688;33.130;-117.188;2022-08-03T02:18:13;99437.41;;;24.46;63.35
37848;BME280;23688;33.130;-117.188;2022-08-03T02:20:40;99440.16;;;24.37;63.85
37848;BME280;23688;33.130;-117.188;2022-08-03T02:23:07;99442.81;;;24.35;63.93
37848;BME280;23688;33.130;-117.188;2022-08-03T02:25:34;99437.84;;;24.16;64.70
37848;BME280;23688;33.130;-117.188;2022-08-03T02:28:10;99428.56;;;23.84;65.84
37848;BME280;23688;33.130;-117.188;2022-08-03T02:30:37;99436.03;;;23.49;67.76
37848;BME280;23688;33.130;-117.188;2022-08-03T02:33:03;99447.56;;;23.48;67.95
37848;BME280;23688;33.130;-117.188;2022-08-03T02:35:30;99444.13;;;23.37;68.77
37848;BME280;23688;33.130;-117.188;2022-08-03T02:37:58;99443.34;;;23.29;70.41
37848;BME280;23688;33.130;-117.188;2022-08-03T02:40:26;99443.38;;;23.27;70.58
37848;BME280;23688;33.130;-117.188;2022-08-03T02:42:55;99441.72;;;23.16;70.63
37848;BME280;23688;33.130;-117.188;2022-08-03T02:45:25;99446.94;;;23.25;70.72
37848;BME280;23688;33.130;-117.188;2022-08-03T02:47:54;99455.81;;;23.19;71.04
37848;BME280;23688;33.130;-117.188;2022-08-03T02:50:21;99454.78;;;23.33;70.60
37848;BME280;23688;33.130;-117.188;2022-08-03T02:52:47;99453.91;;;23.34;71.14
37848;BME280;23688;33.130;-117.188;2022-08-03T02:55:14;99448.47;;;23.44;70.68
37848;BME280;23688;33.130;-117.188;2022-08-03T02:57:41;99449.44;;;23.39;71.37
37848;BME280;23688;33.130;-117.188;2022-08-03T03:00:09;99445.91;;;23.35;71.90
37848;BME280;23688;33.130;-117.188;2022-08-03T03:02:35;99442.44;;;23.28;72.04
37848;BME280;23688;33.130;-117.188;2022-08-03T03:05:02;99447.94;;;23.12;73.21
37848;BME280;23688;33.130;-117.188;2022-08-03T03:07:30;99451.63;;;22.94;74.26
37848;BME280;23688;33.130;-117.188;2022-08-03T03:09:57;99448.91;;;23.03;74.55
37848;BME280;23688;33.130;-117.188;2022-08-03T03:12:23;99447.28;;;22.86;75.46
37848;BME280;23688;33.130;-117.188;2022-08-03T03:14:50;99445.66;;;22.73;77.52
37848;BME280;23688;33.130;-117.188;2022-08-03T03:17:16;99459.03;;;22.50;80.28
37848;BME280;23688;33.130;-117.188;2022-08-03T03:19:43;99462.72;;;22.34;81.95
37848;BME280;23688;33.130;-117.188;2022-08-03T03:22:09;99455.69;;;22.30;82.60
37848;BME280;23688;33.130;-117.188;2022-08-03T03:24:36;99463.63;;;22.28;83.11
37848;BME280;23688;33.130;-117.188;2022-08-03T03:27:02;99462.75;;;22.28;83.44
37848;BME280;23688;33.130;-117.188;2022-08-03T03:29:34;99466.38;;;22.04;85.44
37848;BME280;23688;33.130;-117.188;2022-08-03T03:32:01;99462.00;;;21.99;85.78
37848;BME280;23688;33.130;-117.188;2022-08-03T03:34:28;99471.75;;;21.93;86.55
37848;BME280;23688;33.130;-117.188;2022-08-03T03:36:55;99469.06;;;21.94;86.48
37848;BME280;23688;33.130;-117.188;2022-08-03T03:39:21;99465.47;;;22.11;85.80
37848;BME280;23688;33.130;-117.188;2022-08-03T03:41:47;99476.88;;;22.23;85.29
37848;BME280;23688;33.130;-117.188;2022-08-03T03:44:13;99467.91;;;22.46;83.92
37848;BME280;23688;33.130;-117.188;2022-08-03T03:46:39;99466.81;;;22.72;82.32
37848;BME280;23688;33.130;-117.188;2022-08-03T03:49:05;99468.38;;;22.94;80.89
37848;BME280;23688;33.130;-117.188;2022-08-03T03:51:31;99469.31;;;22.87;80.90
37848;BME280;23688;33.130;-117.188;2022-08-03T03:54:01;99470.53;;;22.48;83.82
37848;BME280;23688;33.130;-117.188;2022-08-03T03:56:27;99476.03;;;22.11;86.11
37848;BME280;23688;33.130;-117.188;2022-08-03T03:58:53;99470.88;;;21.88;88.13
37848;BME280;23688;33.130;-117.188;2022-08-03T04:01:20;99472.53;;;22.04;87.33
37848;BME280;23688;33.130;-117.188;2022-08-03T04:03:46;99478.66;;;22.15;86.90
37848;BME280;23688;33.130;-117.188;2022-08-03T04:06:13;99491.84;;;22.18;86.35
37848;BME280;23688;33.130;-117.188;2022-08-03T04:08:57;99497.25;;;22.00;87.39
37848;BME280;23688;33.130;-117.188;2022-08-03T04:14:15;99492.88;;;21.93;87.89
37848;BME280;23688;33.130;-117.188;2022-08-03T04:16:44;99501.75;;;21.75;89.26
37848;BME280;23688;33.130;-117.188;2022-08-03T04:19:13;99499.97;;;21.82;89.56
37848;BME280;23688;33.130;-117.188;2022-08-03T04:21:41;99508.78;;;21.84;89.09
37848;BME280;23688;33.130;-117.188;2022-08-03T04:24:08;99503.56;;;21.64;90.50
37848;BME280;23688;33.130;-117.188;2022-08-03T04:26:36;99515.06;;;21.52;91.28
37848;BME280;23688;33.130;-117.188;2022-08-03T04:29:04;99501.88;;;21.49;91.24
37848;BME280;23688;33.130;-117.188;2022-08-03T04:31:31;99511.53;;;21.47;91.66
37848;BME280;23688;33.130;-117.188;2022-08-03T04:34:02;99518.59;;;21.46;91.28
37848;BME280;23688;33.130;-117.188;2022-08-03T04:36:30;99514.19;;;21.30;92.36
37848;BME280;23688;33.130;-117.188;2022-08-03T04:39:04;99514.19;;;21.34;91.98
37848;BME280;23688;33.130;-117.188;2022-08-03T04:41:31;99514.19;;;21.28;92.37
37848;BME280;23688;33.130;-117.188;2022-08-03T04:43:59;99513.31;;;21.19;92.54
37848;BME280;23688;33.130;-117.188;2022-08-03T04:46:27;99515.97;;;21.42;90.74
37848;BME280;23688;33.130;-117.188;2022-08-03T04:48:54;99522.09;;;21.45;89.45
37848;BME280;23688;33.130;-117.188;2022-08-03T04:51:23;99520.34;;;21.53;88.26
37848;BME280;23688;33.130;-117.188;2022-08-03T04:53:49;99530.00;;;21.62;86.87
37848;BME280;23688;33.130;-117.188;2022-08-03T04:56:17;99528.19;;;21.72;86.54
37848;BME280;23688;33.130;-117.188;2022-08-03T04:58:43;99534.31;;;21.91;85.15
37848;BME280;23688;33.130;-117.188;2022-08-03T05:01:09;99528.13;;;21.95;84.67
37848;BME280;23688;33.130;-117.188;2022-08-03T05:03:35;99516.63;;;21.99;84.37
37848;BME280;23688;33.130;-117.188;2022-08-03T05:06:08;99523.72;;;21.94;84.32
37848;BME280;23688;33.130;-117.188;2022-08-03T05:08:34;99518.44;;;21.89;84.63
37848;BME280;23688;33.130;-117.188;2022-08-03T05:11:00;99522.06;;;21.68;86.63
37848;BME280;23688;33.130;-117.188;2022-08-03T05:13:28;99521.22;;;21.49;88.17
37848;BME280;23688;33.130;-117.188;2022-08-03T05:15:54;99515.94;;;21.54;88.83
37848;BME280;23688;33.130;-117.188;2022-08-03T05:18:20;99517.63;;;21.67;87.50
37848;BME280;23688;33.130;-117.188;2022-08-03T05:20:46;99519.41;;;21.65;87.46
37848;BME280;23688;33.130;-117.188;2022-08-03T05:23:11;99528.19;;;21.73;86.90
37848;BME280;23688;33.130;-117.188;2022-08-03T05:25:37;99522.06;;;21.64;87.03
37848;BME280;23688;33.130;-117.188;2022-08-03T05:28:04;99526.50;;;21.38;88.92
37848;BME280;23688;33.130;-117.188;2022-08-03T05:30:30;99521.25;;;21.17;89.92
37848;BME280;23688;33.130;-117.188;2022-08-03T05:32:56;99514.19;;;21.11;90.74
37848;BME280;23688;33.130;-117.188;2022-08-03T05:35:22;99515.13;;;21.00;92.05
37848;BME280;23688;33.130;-117.188;2022-08-03T05:37:49;99509.78;;;21.21;91.43
37848;BME280;23688;33.130;-117.188;2022-08-03T05:40:15;99513.31;;;21.46;90.52
37848;BME280;23688;33.130;-117.188;2022-08-03T05:42:41;99514.22;;;21.44;89.89
37848;BME280;23688;33.130;-117.188;2022-08-03T05:45:07;99507.13;;;21.46;90.06
37848;BME280;23688;33.130;-117.188;2022-08-03T05:47:40;99503.63;;;21.28;90.76
37848;BME280;23688;33.130;-117.188;2022-08-03T05:50:06;99504.50;;;21.16;92.47
37848;BME280;23688;33.130;-117.188;2022-08-03T05:52:32;99510.69;;;21.12;92.44
37848;BME280;23688;33.130;-117.188;2022-08-03T05:54:58;99510.69;;;21.20;92.26
37848;BME280;23688;33.130;-117.188;2022-08-03T05:57:24;99512.41;;;21.38;91.12
37848;BME280;23688;33.130;-117.188;2022-08-03T05:59:50;99508.88;;;21.53;90.51
37848;BME280;23688;33.130;-117.188;2022-08-03T06:02:16;99512.38;;;21.64;89.42
37848;BME280;23688;33.130;-117.188;2022-08-03T06:04:42;99514.97;;;21.76;88.34
37848;BME280;23688;33.130;-117.188;2022-08-03T06:07:08;99504.44;;;21.64;88.39
37848;BME280;23688;33.130;-117.188;2022-08-03T06:09:34;99508.00;;;21.58;88.63
37848;BME280;23688;33.130;-117.188;2022-08-03T06:11:59;99505.34;;;21.57;89.00
37848;BME280;23688;33.130;-117.188;2022-08-03T06:14:25;99498.28;;;21.67;88.70
37848;BME280;23688;33.130;-117.188;2022-08-03T06:16:51;99503.47;;;21.82;87.52
37848;BME280;23688;33.130;-117.188;2022-08-03T06:19:17;99495.53;;;21.91;87.42
37848;BME280;23688;33.130;-117.188;2022-08-03T06:21:43;99499.06;;;21.95;86.96
37848;BME280;23688;33.130;-117.188;2022-08-03T06:24:09;99502.53;;;22.00;86.27
37848;BME280;23688;33.130;-117.188;2022-08-03T06:26:35;99502.53;;;21.98;86.24
37848;BME280;23688;33.130;-117.188;2022-08-03T06:29:01;99502.50;;;22.01;86.00
37848;BME280;23688;33.130;-117.188;2022-08-03T06:31:26;99496.41;;;21.95;86.11
37848;BME280;23688;33.130;-117.188;2022-08-03T06:33:54;99495.50;;;21.96;86.13
37848;BME280;23688;33.130;-117.188;2022-08-03T06:36:20;99500.78;;;21.94;86.24
37848;BME280;23688;33.130;-117.188;2022-08-03T06:38:46;99499.94;;;21.92;86.07
37848;BME280;23688;33.130;-117.188;2022-08-03T06:41:12;99499.91;;;21.94;86.02
37848;BME280;23688;33.130;-117.188;2022-08-03T06:43:38;99497.28;;;21.95;85.73
37848;BME280;23688;33.130;-117.188;2022-08-03T06:46:03;99491.97;;;22.00;85.45
37848;BME280;23688;33.130;-117.188;2022-08-03T06:48:30;99496.34;;;22.01;85.43
37848;BME280;23688;33.130;-117.188;2022-08-03T06:50:56;99490.19;;;22.02;85.26
37848;BME280;23688;33.130;-117.188;2022-08-03T06:53:21;99498.13;;;22.02;85.12
37848;BME280;23688;33.130;-117.188;2022-08-03T06:55:47;99497.22;;;22.01;85.21
37848;BME280;23688;33.130;-117.188;2022-08-03T06:58:13;99493.72;;;22.01;85.40
37848;BME280;23688;33.130;-117.188;2022-08-03T07:00:39;99501.63;;;21.99;85.47
37848;BME280;23688;33.130;-117.188;2022-08-03T07:03:05;99497.25;;;22.05;85.17
37848;BME280;23688;33.130;-117.188;2022-08-03T07:05:31;99491.03;;;22.04;84.77
37848;BME280;23688;33.130;-117.188;2022-08-03T07:07:59;99487.53;;;22.05;84.79
37848;BME280;23688;33.130;-117.188;2022-08-03T07:10:27;99491.91;;;22.06;84.73
37848;BME280;23688;33.130;-117.188;2022-08-03T07:12:53;99489.31;;;22.05;84.68
37848;BME280;23688;33.130;-117.188;2022-08-03T07:15:19;99492.81;;;22.05;84.55
37848;BME280;23688;33.130;-117.188;2022-08-03T07:17:45;99492.84;;;22.02;84.65
37848;BME280;23688;33.130;-117.188;2022-08-03T07:20:11;99490.19;;;22.02;84.40
37848;BME280;23688;33.130;-117.188;2022-08-03T07:22:37;99498.16;;;21.96;84.67
37848;BME280;23688;33.130;-117.188;2022-08-03T07:25:03;99494.72;;;21.80;84.84
37848;BME280;23688;33.130;-117.188;2022-08-03T07:27:32;99492.06;;;21.80;85.00
37848;BME280;23688;33.130;-117.188;2022-08-03T07:29:58;99484.13;;;21.78;84.95
37848;BME280;23688;33.130;-117.188;2022-08-03T07:32:24;99486.81;;;21.69;84.49
37848;BME280;23688;33.130;-117.188;2022-08-03T07:34:50;99480.69;;;21.59;83.31
37848;BME280;23688;33.130;-117.188;2022-08-03T07:37:16;99472.75;;;21.59;81.14
37848;BME280;23688;33.130;-117.188;2022-08-03T07:39:42;99479.78;;;21.67;81.07
37848;BME280;23688;33.130;-117.188;2022-08-03T07:42:07;99480.72;;;21.49;81.13
37848;BME280;23688;33.130;-117.188;2022-08-03T07:44:33;99468.47;;;21.17;81.73
37848;BME280;23688;33.130;-117.188;2022-08-03T07:46:59;99473.72;;;21.20;82.04
37848;BME280;23688;33.130;-117.188;2022-08-03T07:49:25;99471.97;;;21.07;82.83
37848;BME280;23688;33.130;-117.188;2022-08-03T07:51:51;99471.13;;;21.00;84.17
37848;BME280;23688;33.130;-117.188;2022-08-03T07:54:35;99475.50;;;21.12;84.06
37848;BME280;23688;33.130;-117.188;2022-08-03T07:57:01;99474.59;;;21.21;83.64
37848;BME280;23688;33.130;-117.188;2022-08-03T07:59:27;99477.25;;;21.22;83.59
37848;BME280;23688;33.130;-117.188;2022-08-03T08:01:52;99469.28;;;21.34;83.19
37848;BME280;23688;33.130;-117.188;2022-08-03T08:04:18;99473.69;;;21.38;81.90
37848;BME280;23688;33.130;-117.188;2022-08-03T08:06:44;99465.75;;;21.45;80.18
37848;BME280;23688;33.130;-117.188;2022-08-03T08:09:10;99469.25;;;21.53;79.74
37848;BME280;23688;33.130;-117.188;2022-08-03T08:11:36;99462.19;;;21.59;79.77
37848;BME280;23688;33.130;-117.188;2022-08-03T08:14:02;99465.72;;;21.57;80.06
37848;BME280;23688;33.130;-117.188;2022-08-03T08:16:29;99457.78;;;21.60;79.82
37848;BME280;23688;33.130;-117.188;2022-08-03T08:18:55;99464.84;;;21.61;79.82
37848;BME280;23688;33.130;-117.188;2022-08-03T08:21:21;99462.19;;;21.59;79.76
37848;BME280;23688;33.130;-117.188;2022-08-03T08:23:47;99463.06;;;21.60;79.17
37848;BME280;23688;33.130;-117.188;2022-08-03T08:26:13;99460.41;;;21.62;78.87
37848;BME280;23688;33.130;-117.188;2022-08-03T08:28:39;99463.94;;;21.62;78.24
37848;BME280;23688;33.130;-117.188;2022-08-03T08:31:05;99460.44;;;21.57;78.27
37848;BME280;23688;33.130;-117.188;2022-08-03T08:33:31;99454.31;;;21.43;78.15
37848;BME280;23688;33.130;-117.188;2022-08-03T08:35:58;99454.31;;;21.33;78.28
37848;BME280;23688;33.130;-117.188;2022-08-03T08:38:24;99456.06;;;21.37;78.25
37848;BME280;23688;33.130;-117.188;2022-08-03T08:40:53;99449.91;;;21.49;78.24
37848;BME280;23688;33.130;-117.188;2022-08-03T08:43:19;99454.28;;;21.55;78.24
37848;BME280;23688;33.130;-117.188;2022-08-03T08:45:46;99439.31;;;21.52;79.21
37848;BME280;23688;33.130;-117.188;2022-08-03T08:48:13;99446.38;;;21.46;79.95
37848;BME280;23688;33.130;-117.188;2022-08-03T08:50:40;99444.63;;;21.43;81.40
37848;BME280;23688;33.130;-117.188;2022-08-03T08:53:06;99450.81;;;21.34;82.24
37848;BME280;23688;33.130;-117.188;2022-08-03T08:55:32;99448.16;;;21.37;82.92
37848;BME280;23688;33.130;-117.188;2022-08-03T08:58:04;99445.50;;;21.50;82.94
37848;BME280;23688;33.130;-117.188;2022-08-03T09:00:30;99441.06;;;21.50;82.54
37848;BME280;23688;33.130;-117.188;2022-08-03T09:02:58;99432.31;;;21.33;82.92
37848;BME280;23688;33.130;-117.188;2022-08-03T09:05:25;99434.94;;;21.41;82.96
37848;BME280;23688;33.130;-117.188;2022-08-03T09:07:51;99420.91;;;21.29;82.96
37848;BME280;23688;33.130;-117.188;2022-08-03T09:10:17;99429.66;;;21.36;82.98
37848;BME280;23688;33.130;-117.188;2022-08-03T09:12:49;99441.09;;;21.49;82.47
37848;BME280;23688;33.130;-117.188;2022-08-03T09:15:16;99433.16;;;21.52;82.17
37848;BME280;23688;33.130;-117.188;2022-08-03T09:17:42;99438.47;;;21.47;82.06
37848;BME280;23688;33.130;-117.188;2022-08-03T09:20:08;99440.22;;;21.47;82.36
37848;BME280;23688;33.130;-117.188;2022-08-03T09:22:34;99435.81;;;21.53;81.97
37848;BME280;23688;33.130;-117.188;2022-08-03T09:25:02;99437.53;;;21.59;81.30
37848;BME280;23688;33.130;-117.188;2022-08-03T09:27:28;99439.31;;;21.52;81.63
37848;BME280;23688;33.130;-117.188;2022-08-03T09:30:10;99442.00;;;21.45;81.92
37848;BME280;23688;33.130;-117.188;2022-08-03T09:32:37;99440.22;;;21.37;82.53
37848;BME280;23688;33.130;-117.188;2022-08-03T09:35:03;99446.41;;;21.21;83.62
37848;BME280;23688;33.130;-117.188;2022-08-03T09:37:29;99450.84;;;21.16;85.11
37848;BME280;23688;33.130;-117.188;2022-08-03T09:39:55;99454.38;;;21.09;85.56
37848;BME280;23688;33.130;-117.188;2022-08-03T09:42:21;99451.78;;;20.95;87.30
37848;BME280;23688;33.130;-117.188;2022-08-03T09:44:48;99454.41;;;20.80;88.60
37848;BME280;23688;33.130;-117.188;2022-08-03T09:47:26;99449.16;;;20.55;90.48
37848;BME280;23688;33.130;-117.188;2022-08-03T09:49:56;99447.41;;;20.68;90.54
37848;BME280;23688;33.130;-117.188;2022-08-03T09:52:28;99453.53;;;20.79;90.31
37848;BME280;23688;33.130;-117.188;2022-08-03T09:54:54;99453.56;;;20.78;90.18
37848;BME280;23688;33.130;-117.188;2022-08-03T09:57:20;99443.00;;;20.76;90.40
37848;BME280;23688;33.130;-117.188;2022-08-03T09:59:47;99437.69;;;20.50;92.15
37848;BME280;23688;33.130;-117.188;2022-08-03T10:02:23;99431.53;;;20.37;93.04
37848;BME280;23688;33.130;-117.188;2022-08-03T10:04:49;99425.38;;;20.23;94.73
37848;BME280;23688;33.130;-117.188;2022-08-03T10:07:18;99417.44;;;20.10;96.31
37848;BME280;23688;33.130;-117.188;2022-08-03T10:09:53;99418.31;;;20.00;97.15
37848;BME280;23688;33.130;-117.188;2022-08-03T10:12:20;99420.91;;;19.91;99.12
37848;BME280;23688;33.130;-117.188;2022-08-03T10:14:46;99413.91;;;20.01;98.50
37848;BME280;23688;33.130;-117.188;2022-08-03T10:17:12;99419.22;;;20.21;97.55
37848;BME280;23688;33.130;-117.188;2022-08-03T10:19:38;99417.47;;;20.29;96.67
37848;BME280;23688;33.130;-117.188;2022-08-03T10:22:32;99421.84;;;20.16;96.63
37848;BME280;23688;33.130;-117.188;2022-08-03T10:25:02;99413.94;;;20.15;97.22
37848;BME280;23688;33.130;-117.188;2022-08-03T10:27:33;99408.63;;;19.96;97.64
37848;BME280;23688;33.130;-117.188;2022-08-03T10:30:00;99408.63;;;19.88;98.65
37848;BME280;23688;33.130;-117.188;2022-08-03T10:32:30;99396.31;;;19.92;99.13
37848;BME280;23688;33.130;-117.188;2022-08-03T10:34:58;99401.59;;;19.87;99.39
37848;BME280;23688;33.130;-117.188;2022-08-03T10:37:27;99403.34;;;19.96;99.40
37848;BME280;23688;33.130;-117.188;2022-08-03T10:39:55;99406.03;;;20.18;97.88
37848;BME280;23688;33.130;-117.188;2022-08-03T10:42:23;99403.38;;;20.24;97.11
37848;BME280;23688;33.130;-117.188;2022-08-03T10:44:52;99405.16;;;20.37;96.07
37848;BME280;23688;33.130;-117.188;2022-08-03T10:47:20;99404.28;;;20.50;95.46
37848;BME280;23688;33.130;-117.188;2022-08-03T10:49:47;99409.59;;;20.60;93.50
37848;BME280;23688;33.130;-117.188;2022-08-03T10:52:13;99400.78;;;20.65;92.71
37848;BME280;23688;33.130;-117.188;2022-08-03T10:54:40;99404.28;;;20.67;92.68
37848;BME280;23688;33.130;-117.188;2022-08-03T10:57:42;99396.41;;;20.70;92.75
37848;BME280;23688;33.130;-117.188;2022-08-03T11:00:08;99397.25;;;20.72;92.50
37848;BME280;23688;33.130;-117.188;2022-08-03T11:05:26;99379.66;;;20.82;90.67
37848;BME280;23688;33.130;-117.188;2022-08-03T11:10:39;99373.53;;;20.80;90.47
37848;BME280;23688;33.130;-117.188;2022-08-03T11:13:06;99377.91;;;20.83;89.62
37848;BME280;23688;33.130;-117.188;2022-08-03T11:15:32;99377.00;;;20.82;89.37
37848;BME280;23688;33.130;-117.188;2022-08-03T11:18:09;99372.59;;;20.84;89.28
37848;BME280;23688;33.130;-117.188;2022-08-03T11:20:54;99372.63;;;20.86;89.18
37848;BME280;23688;33.130;-117.188;2022-08-03T11:23:40;99370.88;;;20.83;88.63
37848;BME280;23688;33.130;-117.188;2022-08-03T11:26:13;99368.22;;;20.83;89.24
37848;BME280;23688;33.130;-117.188;2022-08-03T11:28:39;99365.59;;;20.77;88.98
37848;BME280;23688;33.130;-117.188;2022-08-03T11:34:05;99350.66;;;20.73;89.19
37848;BME280;23688;33.130;-117.188;2022-08-03T11:39:16;99358.56;;;20.71;89.01
37848;BME280;23688;33.130;-117.188;2022-08-03T11:41:41;99366.50;;;20.73;88.91
37848;BME280;23688;33.130;-117.188;2022-08-03T11:44:07;99370.00;;;20.78;88.59
37848;BME280;23688;33.130;-117.188;2022-08-03T11:46:37;99374.38;;;20.79;88.43
37848;BME280;23688;33.130;-117.188;2022-08-03T11:49:04;99370.00;;;20.78;88.18
37848;BME280;23688;33.130;-117.188;2022-08-03T11:51:32;99370.88;;;20.79;88.29
37848;BME280;23688;33.130;-117.188;2022-08-03T11:54:02;99370.88;;;20.79;88.00
37848;BME280;23688;33.130;-117.188;2022-08-03T11:56:41;99375.28;;;20.72;88.41
37848;BME280;23688;33.130;-117.188;2022-08-03T11:59:08;99361.22;;;20.68;88.50
37848;BME280;23688;33.130;-117.188;2022-08-03T12:01:33;99348.91;;;20.66;88.78
37848;BME280;23688;33.130;-117.188;2022-08-03T12:04:03;99360.34;;;20.60;88.96
37848;BME280;23688;33.130;-117.188;2022-08-03T12:06:29;99361.22;;;20.67;88.62
37848;BME280;23688;33.130;-117.188;2022-08-03T12:08:55;99364.75;;;20.66;88.81
37848;BME280;23688;33.130;-117.188;2022-08-03T12:11:20;99368.25;;;20.56;88.94
37848;BME280;23688;33.130;-117.188;2022-08-03T12:13:48;99368.25;;;20.46;89.82
37848;BME280;23688;33.130;-117.188;2022-08-03T12:16:22;99369.13;;;20.30;91.33
37848;BME280;23688;33.130;-117.188;2022-08-03T12:19:21;99367.38;;;20.40;91.66
37848;BME280;23688;33.130;-117.188;2022-08-03T12:21:46;99375.28;;;20.43;91.67
37848;BME280;23688;33.130;-117.188;2022-08-03T12:24:13;99379.66;;;20.41;92.00
37848;BME280;23688;33.130;-117.188;2022-08-03T12:26:45;99380.56;;;20.44;92.06
37848;BME280;23688;33.130;-117.188;2022-08-03T12:29:21;99381.44;;;20.54;91.66
37848;BME280;23688;33.130;-117.188;2022-08-03T12:31:47;99387.63;;;20.61;91.68
37848;BME280;23688;33.130;-117.188;2022-08-03T12:34:13;99379.69;;;20.62;91.14
37848;BME280;23688;33.130;-117.188;2022-08-03T12:36:52;99385.84;;;20.53;91.32
37848;BME280;23688;33.130;-117.188;2022-08-03T12:39:23;99399.00;;;20.47;91.83
37848;BME280;23688;33.130;-117.188;2022-08-03T12:41:53;99403.41;;;20.48;91.46
37848;BME280;23688;33.130;-117.188;2022-08-03T12:44:28;99403.41;;;20.55;91.26
37848;BME280;23688;33.130;-117.188;2022-08-03T12:46:56;99406.97;;;20.61;90.79
37848;BME280;23688;33.130;-117.188;2022-08-03T12:49:22;99406.06;;;20.64;90.84
37848;BME280;23688;33.130;-117.188;2022-08-03T12:54:18;99401.69;;;20.66;90.31
37848;BME280;23688;33.130;-117.188;2022-08-03T12:57:00;99404.31;;;20.70;89.90
37848;BME280;23688;33.130;-117.188;2022-08-03T12:59:27;99408.72;;;20.73;89.45
37848;BME280;23688;33.130;-117.188;2022-08-03T13:01:53;99405.16;;;20.72;89.29
37848;BME280;23688;33.130;-117.188;2022-08-03T13:04:29;99403.44;;;20.73;89.36
37848;BME280;23688;33.130;-117.188;2022-08-03T13:06:56;99408.69;;;20.71;89.14
37848;BME280;23688;33.130;-117.188;2022-08-03T13:09:22;99399.03;;;20.69;88.97
37848;BME280;23688;33.130;-117.188;2022-08-03T13:14:31;99405.19;;;20.62;88.84